createdAt,value
2022-09-12T00:01:24.214Z,5.97
2022-09-12T00:03:54.575Z,15.20
2022-09-12T00:06:26.639Z,16.57
2022-09-12T00:08:59.068Z,10.30
2022-09-12T00:11:28.208Z,14.67
2022-09-12T00:14:00.477Z,14.33
2022-09-12T00:16:33.328Z,11.50
2022-09-12T00:19:02.040Z,5.87
2022-09-12T00:21:30.528Z,14.43
2022-09-12T00:23:58.401Z,4.10
2022-09-12T00:26:26.272Z,3.80
2022-09-12T00:28:54.871Z,3.80
2022-09-12T00:31:27.327Z,3.83
2022-09-12T00:33:58.560Z,3.93
2022-09-12T00:36:28.988Z,3.37
2022-09-12T00:38:57.002Z,3.60
2022-09-12T00:41:28.952Z,3.80
2022-09-12T00:43:59.672Z,3.97
2022-09-12T00:46:37.297Z,3.90
2022-09-12T00:49:12.568Z,3.97
2022-09-12T00:51:43.991Z,3.70
2022-09-12T00:54:19.983Z,4.00
2022-09-12T00:56:51.304Z,3.60
2022-09-12T00:59:25.683Z,3.77
2022-09-12T01:01:56.717Z,3.90
2022-09-12T01:04:29.285Z,3.60
2022-09-12T01:06:59.719Z,3.43
2022-09-12T01:09:27.676Z,3.57
2022-09-12T01:11:56.763Z,3.30
2022-09-12T01:14:25.430Z,3.60
2022-09-12T01:16:54.673Z,3.33
2022-09-12T01:20:01.143Z,3.80
2022-09-12T01:23:11.037Z,3.67
2022-09-12T01:26:01.308Z,3.87
2022-09-12T01:28:54.355Z,3.90
2022-09-12T01:31:34.749Z,4.03
2022-09-12T01:34:20.936Z,4.00
2022-09-12T01:37:01.307Z,3.90
2022-09-12T01:39:42.155Z,3.57
2022-09-12T01:42:23.366Z,3.77
2022-09-12T01:45:02.978Z,3.60
2022-09-12T01:47:40.921Z,3.60
2022-09-12T01:50:18.708Z,3.77
2022-09-12T01:52:54.871Z,3.97
2022-09-12T01:55:29.319Z,4.10
2022-09-12T01:58:05.816Z,3.87
2022-09-12T02:00:36.448Z,4.30
2022-09-12T02:03:13.596Z,3.77
2022-09-12T02:05:49.892Z,4.10
2022-09-12T02:08:26.690Z,4.07
2022-09-12T02:10:59.891Z,4.10
2022-09-12T02:13:36.590Z,4.00
2022-09-12T02:16:10.965Z,3.93
2022-09-12T02:18:45.790Z,4.20
2022-09-12T02:21:14.398Z,4.27
2022-09-12T02:23:52.021Z,3.97
2022-09-12T02:26:25.574Z,4.50
2022-09-12T02:28:53.379Z,4.63
2022-09-12T02:31:30.020Z,4.70
2022-09-12T02:34:14.365Z,4.00
2022-09-12T02:36:53.055Z,4.40
2022-09-12T02:39:21.325Z,4.57
2022-09-12T02:41:52.562Z,4.40
2022-09-12T02:44:21.625Z,4.53
2022-09-12T02:46:55.208Z,4.20
2022-09-12T02:49:24.851Z,4.33
2022-09-12T02:51:53.024Z,4.50
2022-09-12T02:54:22.309Z,4.50
2022-09-12T02:56:50.103Z,5.07
2022-09-12T02:59:21.688Z,4.30
2022-09-12T03:02:25.460Z,4.33
2022-09-12T03:05:20.079Z,4.20
2022-09-12T03:08:16.872Z,4.40
2022-09-12T03:11:10.445Z,4.63
2022-09-12T03:13:54.339Z,4.50
2022-09-12T03:16:35.750Z,4.60
2022-09-12T03:19:13.711Z,4.53
2022-09-12T03:21:59.513Z,4.13
2022-09-12T03:24:35.131Z,4.50
2022-09-12T03:27:12.410Z,4.70
2022-09-12T03:29:42.399Z,4.40
2022-09-12T03:32:10.164Z,4.80
2022-09-12T03:34:37.912Z,4.50
2022-09-12T03:37:07.483Z,4.60
2022-09-12T03:39:35.295Z,4.47
2022-09-12T03:42:03.104Z,4.83
2022-09-12T03:44:30.884Z,4.60
2022-09-12T03:46:58.667Z,4.47
2022-09-12T03:49:26.428Z,4.40
2022-09-12T03:51:54.183Z,5.07
2022-09-12T03:54:23.452Z,4.90
2022-09-12T03:56:51.377Z,5.00
2022-09-12T03:59:19.170Z,5.10
2022-09-12T04:01:46.967Z,5.30
2022-09-12T04:04:14.768Z,5.87
2022-09-12T04:06:43.034Z,5.33
2022-09-12T04:09:11.139Z,5.17
2022-09-12T04:11:40.231Z,4.93
2022-09-12T04:14:07.990Z,5.20
2022-09-12T04:16:35.881Z,5.37
2022-09-12T04:19:03.706Z,5.73
2022-09-12T04:21:32.031Z,5.83
2022-09-12T04:23:59.861Z,5.43
2022-09-12T04:26:29.739Z,5.43
2022-09-12T04:28:59.401Z,5.20
2022-09-12T04:31:28.018Z,5.47
2022-09-12T04:33:57.700Z,5.23
2022-09-12T04:36:29.061Z,5.23
2022-09-12T04:38:57.372Z,5.13
2022-09-12T04:41:28.409Z,5.53
2022-09-12T04:44:01.622Z,6.30
2022-09-12T04:46:31.765Z,5.80
2022-09-12T04:48:59.676Z,6.17
2022-09-12T04:51:30.965Z,6.20
2022-09-12T04:54:02.483Z,6.43
2022-09-12T04:56:31.634Z,6.40
2022-09-12T04:59:02.358Z,6.33
2022-09-12T05:01:30.967Z,6.87
2022-09-12T05:04:00.766Z,7.23
2022-09-12T05:06:31.739Z,6.17
2022-09-12T05:09:01.836Z,7.50
2022-09-12T05:12:02.029Z,7.27
2022-09-12T05:14:22.098Z,6.77
2022-09-12T05:16:50.041Z,7.47
2022-09-12T05:19:18.478Z,7.30
2022-09-12T05:21:46.250Z,6.60
2022-09-12T05:24:14.075Z,7.63
2022-09-12T05:26:41.833Z,7.60
2022-09-12T05:29:09.635Z,7.60
2022-09-12T05:31:39.134Z,7.67
2022-09-12T05:34:07.013Z,7.70
2022-09-12T05:36:35.021Z,7.50
2022-09-12T05:39:03.760Z,7.50
2022-09-12T05:41:33.882Z,8.47
2022-09-12T05:44:05.325Z,8.40
2022-09-12T05:46:40.369Z,8.60
2022-09-12T05:49:11.575Z,7.87
2022-09-12T05:51:42.889Z,8.03
2022-09-12T05:54:14.973Z,7.97
2022-09-12T05:56:45.014Z,8.00
2022-09-12T05:59:15.451Z,8.00
2022-09-12T06:01:45.609Z,8.33
2022-09-12T06:04:14.118Z,8.40
2022-09-12T06:06:44.981Z,9.23
2022-09-12T06:09:15.593Z,9.17
2022-09-12T06:11:43.874Z,8.80
2022-09-12T06:14:14.253Z,8.27
2022-09-12T06:16:42.213Z,8.37
2022-09-12T06:19:20.014Z,8.93
2022-09-12T06:21:49.423Z,8.80
2022-09-12T06:24:17.956Z,9.50
2022-09-12T06:26:47.371Z,8.80
2022-09-12T06:29:15.930Z,9.63
2022-09-12T06:31:45.256Z,11.97
2022-09-12T06:34:16.504Z,11.77
2022-09-12T06:36:49.036Z,11.87
2022-09-12T06:39:19.941Z,9.83
2022-09-12T06:41:48.435Z,10.10
2022-09-12T06:44:19.522Z,10.53
2022-09-12T06:46:47.762Z,10.50
2022-09-12T06:49:17.558Z,10.80
2022-09-12T06:51:45.341Z,10.27
2022-09-12T06:54:15.398Z,9.90
2022-09-12T06:56:43.678Z,9.03
2022-09-12T06:59:11.809Z,9.73
2022-09-12T07:01:41.103Z,10.17
2022-09-12T07:04:08.963Z,8.70
2022-09-12T07:06:41.491Z,9.17
2022-09-12T07:09:13.203Z,8.60
2022-09-12T07:11:43.304Z,8.27
2022-09-12T07:14:14.876Z,8.30
2022-09-12T07:16:43.128Z,8.37
2022-09-12T07:19:12.126Z,8.50
2022-09-12T07:21:42.467Z,8.83
2022-09-12T07:24:11.457Z,8.20
2022-09-12T07:26:41.988Z,8.50
2022-09-12T07:32:05.975Z,8.90
2022-09-12T07:34:34.866Z,9.70
2022-09-12T07:37:04.561Z,9.90
2022-09-12T07:39:32.386Z,10.10
2022-09-12T07:42:00.419Z,10.67
2022-09-12T07:44:29.392Z,9.37
2022-09-12T07:46:57.193Z,9.43
2022-09-12T07:49:25.139Z,10.00
2022-09-12T07:51:53.166Z,8.83
2022-09-12T07:54:22.432Z,10.30
2022-09-12T07:56:50.280Z,9.07
2022-09-12T07:59:35.333Z,8.00
2022-09-12T08:02:06.340Z,6.50
2022-09-12T08:04:36.386Z,6.47
2022-09-12T08:07:04.464Z,5.37
2022-09-12T08:09:33.593Z,5.27
2022-09-12T08:12:01.497Z,6.07
2022-09-12T08:14:29.657Z,4.83
2022-09-12T08:16:57.450Z,4.20
2022-09-12T08:19:25.302Z,5.33
2022-09-12T08:21:53.071Z,5.27
2022-09-12T08:24:20.836Z,3.47
2022-09-12T08:26:49.958Z,3.60
2022-09-12T08:29:18.018Z,3.20
2022-09-12T08:31:46.793Z,2.95
2022-09-12T08:34:17.022Z,3.20
2022-09-12T08:36:44.796Z,2.90
2022-09-12T08:39:14.561Z,3.38
2022-09-12T08:41:45.716Z,2.63
2022-09-12T08:44:35.129Z,2.43
2022-09-12T08:47:23.783Z,2.27
2022-09-12T08:50:11.660Z,1.80
2022-09-12T08:52:51.884Z,1.63
2022-09-12T08:55:34.350Z,1.38
2022-09-12T08:58:10.842Z,3.17
2022-09-12T09:00:53.996Z,1.40
2022-09-12T09:03:56.537Z,1.70
2022-09-12T09:06:49.568Z,2.27
2022-09-12T09:09:34.757Z,2.00
2022-09-12T09:12:16.542Z,2.80
2022-09-12T09:15:03.180Z,2.30
2022-09-12T09:17:39.940Z,3.03
2022-09-12T09:20:24.829Z,2.63
2022-09-12T09:22:58.089Z,3.03
2022-09-12T09:25:41.569Z,2.77
2022-09-12T09:28:17.615Z,3.17
2022-09-12T09:30:45.968Z,3.43
2022-09-12T09:33:24.204Z,2.77
2022-09-12T09:36:05.420Z,2.70
2022-09-12T09:38:49.529Z,3.13
2022-09-12T09:41:46.238Z,3.40
2022-09-12T09:44:14.545Z,3.20
2022-09-12T09:46:42.626Z,3.37
2022-09-12T09:49:16.484Z,3.63
2022-09-12T09:51:44.776Z,2.87
2022-09-12T09:54:22.422Z,3.23
2022-09-12T09:56:50.910Z,3.78
2022-09-12T09:59:27.594Z,4.40
2022-09-12T10:02:02.052Z,4.40
2022-09-12T10:04:40.575Z,3.77
2022-09-12T10:07:21.819Z,2.45
2022-09-12T10:10:07.849Z,1.42
2022-09-12T10:12:35.688Z,1.60
2022-09-12T10:15:19.044Z,1.52
2022-09-12T10:17:49.440Z,1.90
2022-09-12T10:20:39.757Z,1.90
2022-09-12T10:23:30.366Z,1.63
2022-09-12T10:26:04.214Z,1.50
2022-09-12T10:28:39.373Z,1.67
2022-09-12T10:31:11.328Z,1.33
2022-09-12T10:33:47.355Z,1.10
2022-09-12T10:36:17.778Z,1.70
2022-09-12T10:38:52.090Z,1.80
2022-09-12T10:41:21.807Z,1.60
2022-09-12T10:43:50.353Z,1.40
2022-09-12T10:46:30.408Z,2.25
2022-09-12T10:49:18.955Z,1.50
2022-09-12T10:51:48.546Z,1.83
2022-09-12T10:54:19.810Z,1.00
2022-09-12T10:57:25.649Z,0.80
2022-09-12T11:00:12.281Z,1.00
2022-09-12T11:03:06.384Z,1.23
2022-09-12T11:05:56.238Z,1.02
2022-09-12T11:08:57.209Z,1.38
2022-09-12T11:11:51.223Z,1.30
2022-09-12T11:14:38.210Z,0.75
2022-09-12T11:17:25.116Z,1.05
2022-09-12T11:20:27.172Z,1.00
2022-09-12T11:23:31.453Z,1.20
2022-09-12T11:26:12.966Z,1.20
2022-09-12T11:28:56.692Z,1.10
2022-09-12T11:31:55.653Z,1.10
2022-09-12T11:34:39.318Z,1.30
2022-09-12T11:37:39.994Z,1.30
2022-09-12T11:40:28.904Z,1.30
2022-09-12T11:43:06.395Z,1.23
2022-09-12T11:45:42.072Z,0.98
2022-09-12T11:48:24.493Z,1.27
2022-09-12T11:50:53.215Z,1.50
2022-09-12T11:53:26.916Z,1.10
2022-09-12T11:56:00.807Z,1.25
2022-09-12T11:58:30.421Z,1.30
2022-09-12T12:01:11.907Z,1.10
2022-09-12T12:03:44.473Z,1.20
2022-09-12T12:06:19.349Z,1.33
2022-09-12T12:08:50.463Z,1.30
2022-09-12T12:11:31.729Z,1.20
2022-09-12T12:14:07.338Z,1.27
2022-09-12T12:16:39.275Z,1.10
2022-09-12T12:19:25.109Z,1.17
2022-09-12T12:21:53.582Z,1.25
2022-09-12T12:24:24.497Z,1.08
2022-09-12T12:27:02.305Z,0.90
2022-09-12T12:29:44.110Z,0.90
2022-09-12T12:32:26.510Z,1.20
2022-09-12T12:35:39.934Z,1.30
2022-09-12T12:38:30.581Z,1.33
2022-09-12T12:41:46.344Z,1.13
2022-09-12T12:44:52.397Z,1.05
2022-09-12T12:47:24.127Z,1.00
2022-09-12T12:49:57.053Z,1.00
2022-09-12T12:52:29.889Z,1.13
2022-09-12T12:55:02.398Z,1.48
2022-09-12T12:57:48.327Z,1.08
2022-09-12T13:00:34.604Z,5.93
2022-09-12T13:03:18.909Z,1.52
2022-09-12T13:05:50.842Z,1.35
2022-09-12T13:08:32.654Z,1.17
2022-09-12T13:11:10.179Z,1.00
2022-09-12T13:13:45.466Z,1.00
2022-09-12T13:16:30.873Z,1.02
2022-09-12T13:19:06.047Z,1.02
2022-09-12T13:21:33.879Z,0.82
2022-09-12T13:24:04.413Z,0.90
2022-09-12T13:26:42.745Z,0.82
2022-09-12T13:29:12.988Z,1.17
2022-09-12T13:31:47.212Z,1.63
2022-09-12T13:34:21.893Z,1.08
2022-09-12T13:37:34.043Z,0.90
2022-09-12T13:40:19.186Z,1.00
2022-09-12T13:42:49.490Z,1.05
2022-09-12T13:45:23.117Z,1.10
2022-09-12T13:47:58.550Z,1.10
2022-09-12T13:50:32.023Z,1.30
2022-09-12T13:53:05.370Z,1.23
2022-09-12T13:55:36.006Z,1.05
2022-09-12T13:58:07.572Z,1.10
2022-09-12T14:00:37.217Z,0.82
2022-09-12T14:03:45.089Z,1.00
2022-09-12T14:06:14.437Z,0.98
2022-09-12T14:08:43.011Z,0.95
2022-09-12T14:11:13.130Z,0.90
2022-09-12T14:13:42.288Z,1.23
2022-09-12T14:16:12.388Z,1.27
2022-09-12T14:18:45.481Z,1.98
2022-09-12T14:21:35.360Z,1.30
2022-09-12T14:24:08.427Z,1.60
2022-09-12T14:26:40.537Z,1.52
2022-09-12T14:29:12.692Z,1.30
2022-09-12T14:31:41.298Z,1.30
2022-09-12T14:34:15.687Z,1.60
2022-09-12T14:36:47.568Z,1.40
2022-09-12T14:39:30.466Z,1.23
2022-09-12T14:42:12.817Z,1.20
2022-09-12T14:44:52.509Z,1.35
2022-09-12T14:47:25.205Z,1.35
2022-09-12T14:49:53.373Z,1.17
2022-09-12T14:52:30.769Z,1.27
2022-09-12T14:55:01.804Z,1.55
2022-09-12T14:57:40.633Z,1.42
2022-09-12T15:00:24.212Z,1.30
2022-09-12T15:02:54.086Z,1.50
2022-09-12T15:05:28.549Z,2.10
2022-09-12T15:08:02.025Z,1.67
2022-09-12T15:10:35.397Z,1.83
2022-09-12T15:13:19.532Z,1.52
2022-09-12T15:15:52.315Z,1.52
2022-09-12T15:18:21.638Z,1.50
2022-09-12T15:20:52.816Z,1.27
2022-09-12T15:23:31.002Z,1.30
2022-09-12T15:25:58.793Z,1.20
2022-09-12T15:28:27.685Z,1.23
2022-09-12T15:31:00.766Z,1.40
2022-09-12T15:33:28.551Z,1.40
2022-09-12T15:35:56.430Z,1.20
2022-09-12T15:38:26.486Z,1.30
2022-09-12T15:40:55.782Z,2.28
2022-09-12T15:43:26.150Z,1.75
2022-09-12T15:45:54.117Z,2.10
2022-09-12T15:48:23.231Z,2.00
2022-09-12T15:50:51.034Z,1.75
2022-09-12T15:53:19.007Z,1.60
2022-09-12T15:55:46.847Z,1.92
2022-09-12T15:58:14.641Z,1.48
2022-09-12T16:00:42.389Z,1.80
2022-09-12T16:03:24.393Z,1.80
2022-09-12T16:05:58.137Z,1.50
2022-09-12T16:08:26.684Z,1.70
2022-09-12T16:10:57.927Z,2.10
2022-09-12T16:13:26.743Z,1.67
2022-09-12T16:15:58.658Z,1.60
2022-09-12T16:18:30.693Z,1.88
2022-09-12T16:20:59.075Z,1.73
2022-09-12T16:23:26.940Z,2.30
2022-09-12T16:25:59.261Z,2.40
2022-09-12T16:28:27.701Z,1.50
2022-09-12T16:31:00.609Z,1.70
2022-09-12T16:33:31.364Z,1.70
2022-09-12T16:36:03.997Z,1.50
2022-09-12T16:38:32.616Z,1.97
2022-09-12T16:41:08.175Z,1.90
2022-09-12T16:43:38.103Z,1.70
2022-09-12T16:46:10.260Z,1.50
2022-09-12T16:48:51.550Z,1.53
2022-09-12T16:51:23.576Z,1.50
2022-09-12T16:53:52.321Z,1.90
2022-09-12T16:56:20.492Z,1.87
2022-09-12T16:58:49.466Z,1.90
2022-09-12T17:01:20.472Z,1.87
2022-09-12T17:03:54.093Z,1.80
2022-09-12T17:06:22.214Z,1.83
2022-09-12T17:08:53.125Z,2.07
2022-09-12T17:11:24.140Z,1.90
2022-09-12T17:14:09.731Z,1.70
2022-09-12T17:16:40.961Z,2.10
2022-09-12T17:19:15.373Z,1.90
2022-09-12T17:21:43.319Z,2.20
2022-09-12T17:24:11.203Z,2.33
2022-09-12T17:26:39.130Z,2.07
2022-09-12T17:29:07.370Z,2.60
2022-09-12T17:31:35.784Z,2.57
2022-09-12T17:34:04.053Z,2.57
2022-09-12T17:36:33.998Z,2.70
2022-09-12T17:39:04.708Z,3.33
2022-09-12T17:41:33.271Z,3.70
2022-09-12T17:44:03.567Z,3.77
2022-09-12T17:46:35.069Z,3.93
2022-09-12T17:49:05.261Z,3.80
2022-09-12T17:51:34.443Z,4.03
2022-09-12T17:54:06.175Z,3.33
2022-09-12T17:56:36.903Z,4.23
2022-09-12T17:59:07.517Z,3.93
2022-09-12T18:01:53.602Z,3.50
2022-09-12T18:04:21.607Z,4.30
2022-09-12T18:06:50.873Z,5.27
2022-09-12T18:09:22.239Z,4.13
2022-09-12T18:11:50.581Z,4.77
2022-09-12T18:14:19.286Z,4.90
2022-09-12T18:16:48.568Z,9.07
2022-09-12T18:19:17.455Z,6.77
2022-09-12T18:21:45.776Z,5.30
2022-09-12T18:24:15.206Z,5.03
2022-09-12T18:26:43.988Z,5.10
2022-09-12T18:29:12.406Z,4.83
2022-09-12T18:31:40.492Z,4.13
2022-09-12T18:34:12.637Z,4.87
2022-09-12T18:36:41.155Z,4.67
2022-09-12T18:39:09.342Z,4.33
2022-09-12T18:41:39.950Z,4.53
2022-09-12T18:44:11.454Z,3.87
2022-09-12T18:46:39.942Z,6.27
2022-09-12T18:49:09.478Z,4.03
2022-09-12T18:51:40.218Z,4.10
2022-09-12T18:54:13.590Z,4.23
2022-09-12T18:56:45.563Z,5.73
2022-09-12T18:59:14.819Z,5.70
2022-09-12T19:01:43.745Z,4.50
2022-09-12T19:04:14.096Z,4.30
2022-09-12T19:06:44.753Z,4.53
2022-09-12T19:09:16.729Z,4.17
2022-09-12T19:11:49.974Z,4.40
2022-09-12T19:14:23.018Z,6.27
2022-09-12T19:16:53.205Z,5.73
2022-09-12T19:19:23.444Z,5.90
2022-09-12T19:21:51.260Z,4.70
2022-09-12T19:24:21.657Z,5.60
2022-09-12T19:26:51.533Z,5.37
2022-09-12T19:29:20.035Z,4.93
2022-09-12T19:31:47.922Z,6.43
2022-09-12T19:34:16.381Z,10.90
2022-09-12T19:36:45.825Z,6.87
2022-09-12T19:39:15.232Z,6.27
2022-09-12T19:41:43.692Z,6.70
2022-09-12T19:44:13.303Z,6.13
2022-09-12T19:46:41.809Z,7.53
2022-09-12T19:49:12.394Z,5.97
2022-09-12T19:51:40.789Z,6.70
2022-09-12T19:54:09.099Z,6.30
2022-09-12T19:56:36.866Z,6.10
2022-09-12T19:59:07.118Z,6.57
2022-09-12T20:01:37.499Z,6.13
2022-09-12T20:04:06.766Z,6.40
2022-09-12T20:06:34.791Z,6.23
2022-09-12T20:09:02.900Z,6.07
2022-09-12T20:11:31.354Z,5.57
2022-09-12T20:13:59.202Z,5.23
2022-09-12T20:16:29.461Z,5.33
2022-09-12T20:19:02.471Z,5.77
2022-09-12T20:21:36.443Z,5.87
2022-09-12T20:24:07.369Z,5.00
2022-09-12T20:26:37.510Z,6.10
2022-09-12T20:29:06.536Z,5.23
2022-09-12T20:31:35.626Z,5.97
2022-09-12T20:34:05.897Z,5.80
2022-09-12T20:36:34.513Z,5.23
2022-09-12T20:39:03.224Z,4.97
2022-09-12T20:41:34.461Z,7.43
2022-09-12T20:44:06.723Z,6.23
2022-09-12T20:46:35.031Z,5.53
2022-09-12T20:49:05.547Z,4.90
2022-09-12T20:51:33.500Z,4.73
2022-09-12T20:54:04.579Z,4.80
2022-09-12T20:56:35.704Z,4.60
2022-09-12T20:59:04.458Z,4.57
2022-09-12T21:01:33.672Z,4.23
2022-09-12T21:04:02.078Z,4.50
2022-09-12T21:06:32.277Z,4.10
2022-09-12T21:09:00.397Z,4.13
2022-09-12T21:11:28.707Z,4.33
2022-09-12T21:13:59.338Z,4.00
2022-09-12T21:16:29.438Z,3.90
2022-09-12T21:19:00.127Z,4.00
2022-09-12T21:21:28.398Z,4.00
2022-09-12T21:24:02.681Z,4.30
2022-09-12T21:26:30.929Z,4.00
2022-09-12T21:28:59.430Z,3.63
2022-09-12T21:31:27.723Z,3.67
2022-09-12T21:33:55.654Z,4.30
2022-09-12T21:36:26.657Z,4.13
2022-09-12T21:38:54.470Z,4.20
2022-09-12T21:41:23.521Z,4.20
2022-09-12T21:43:51.483Z,4.73
2022-09-12T21:46:22.118Z,4.33
2022-09-12T21:48:49.913Z,4.23
2022-09-12T21:51:18.124Z,4.03
2022-09-12T21:53:46.457Z,3.80
2022-09-12T21:56:14.231Z,3.77
2022-09-12T21:58:43.320Z,4.23
2022-09-12T22:01:13.161Z,4.33
2022-09-12T22:03:42.522Z,4.10
2022-09-12T22:06:12.633Z,4.00
2022-09-12T22:08:40.512Z,3.70
2022-09-12T22:11:10.886Z,4.30
2022-09-12T22:13:43.758Z,4.07
2022-09-12T22:16:13.328Z,4.37
2022-09-12T22:18:41.332Z,4.20
2022-09-12T22:21:13.706Z,3.80
2022-09-12T22:23:59.465Z,3.53
2022-09-12T22:26:28.936Z,3.90
2022-09-12T22:28:57.125Z,3.93
2022-09-12T22:31:26.938Z,3.83
2022-09-12T22:33:57.038Z,3.63
2022-09-12T22:36:28.096Z,3.90
2022-09-12T22:38:58.789Z,3.63
2022-09-12T22:41:26.938Z,3.50
2022-09-12T22:43:54.750Z,3.90
2022-09-12T22:46:22.640Z,3.83
2022-09-12T22:48:52.203Z,3.37
2022-09-12T22:51:20.042Z,3.63
2022-09-12T22:53:47.957Z,3.37
2022-09-12T22:56:15.792Z,3.90
2022-09-12T22:58:43.796Z,3.53
2022-09-12T23:01:12.008Z,3.40
2022-09-12T23:03:40.074Z,3.40
2022-09-12T23:06:10.580Z,3.40
2022-09-12T23:08:40.678Z,3.60
2022-09-12T23:11:12.833Z,3.50
2022-09-12T23:13:43.794Z,3.93
2022-09-12T23:16:17.359Z,4.27
2022-09-12T23:18:45.313Z,3.87
2022-09-12T23:21:17.566Z,3.80
2022-09-12T23:23:45.808Z,3.77
2022-09-12T23:26:17.195Z,4.77
2022-09-12T23:28:52.767Z,3.20
2022-09-12T23:31:21.256Z,3.90
2022-09-12T23:33:49.482Z,3.63
2022-09-12T23:36:18.592Z,3.53
2022-09-12T23:38:47.842Z,3.10
2022-09-12T23:41:17.491Z,3.40
2022-09-12T23:43:45.994Z,3.07
2022-09-12T23:46:15.822Z,3.43
2022-09-12T23:48:44.236Z,3.20
2022-09-12T23:51:12.982Z,3.00
2022-09-12T23:53:42.656Z,3.40
2022-09-12T23:56:10.924Z,3.30
2022-09-12T23:58:38.797Z,3.40
